KSBA/SBA METAR and TAF weather

Enter ICAO airport designator
Station Type Date Time Source
KSBA METAR 2019/04/20 21:53 UTC NOAA

KSBA 202153Z 26006KT 10SM FEW012 OVC026 15/11 A3000 RMK AO2 SLP159 T01500111


Station Type Date Time Source
KSBA Decoded METAR 2019/04/20 21:53 UTC NOAA

SANTA BARBARA MUNICIPAL, CA, United States (KSBA) 34-26N 119-51W 3M
Apr 20, 2019 - 05:53 PM EDT / 2019.04.20 2153 UTC
Wind: from the W (260 degrees) at 7 MPH (6 KT):0
Visibility: 10 mile(s):0
Sky conditions: overcast
Temperature: 59.0 F (15.0 C)
Dew Point: 52.0 F (11.1 C)
Relative Humidity: 77%
Pressure (altimeter): 30 in. Hg (1015 hPa)
ob: KSBA 202153Z 26006KT 10SM FEW012 OVC026 15/11 A3000 RMK AO2 SLP159 T01500111
cycle: 22

Station Type Date Time Source
KSBA TAF 2019/04/20 19:03 UTC NOAA

TAF
AMD KSBA 201900Z 2019/2118 20004KT P6SM SCT015 BKN025
FM202100 23012KT P6SM OVC025
FM210000 27010KT P6SM BKN030
FM210400 33008KT P6SM SKC
FM210900 02006KT P6SM SCT020
FM211600 12006KT P6SM SCT020

Example: see airport list